Hlavní strana
METAR-TAF:

METAR-TAF

Letiště :

Letiště Nội Bài

Hanoj, Vietnam

zeměpisná šířka: 21-01N, zeměpisná délka: 105-48E, výška: 6 m

Aktuální stav počasí

Zpráva byla vytvořena před 21 minutami, v 05:00 UTC
Západojihozápadní vítr 5 kt, proměnlivý mezi jižním a západoseverozápadním
Teplota 35°C
Vlhkost vzduchu 60%
Tlak 1003 hPa
Viditelnost 10 km a více
Skoro jasno ve výšce 2300 ft

METAR: VVNB 200500Z 25005KT 180V290 9999 FEW023 35/26 Q1003 NOSIG

Čas: 12:21 (05:21 UTC)

Předpověď počasí

Zpráva byla vytvořena před 6 hodinami a 21 minutami, v 23:00 UTC
Předpověď platná od 20 v 00 UTC do 20 v 24 UTC
Východojihovýchodní vítr 6 kt
Viditelnost 10 km a více
Polojasno ve výšce 2000 ft

TAF: VVNB 192300Z 2000/2024 12006KT 9999 SCT020

Stav a předpovědi počasí z více než 4 000 letišť (zprávy METAR a TAF).

Červené a žluté tečky na mapě představují dostupné meteorologické stanice.

Když kurzor umístíte na tečku, zobrazí se název stanice.

Pak kliknutím zobrazíte stav a předpověď počasí.

Chcete-li změnit mapu, kliknutím na zelené tlačítko se znaménkem +mapu přiblížíte, kliknutím na zelené tlačítko se znaménkem – mapu oddálíte a kliknutím na zelené šipky přejdete na sousední mapy.


METAR-TAF: